sensor_id;sensor_type;location;lat;lon;timestamp;pressure;altitude;pressure_sealevel;temperature;humidity
43820;BME280;67762;52.476;6.046;2023-02-19T00:02:12;101598.09;;;9.80;88.51
43820;BME280;67762;52.476;6.046;2023-02-19T00:04:37;101603.31;;;9.82;88.63
43820;BME280;67762;52.476;6.046;2023-02-19T00:07:02;101604.00;;;9.84;88.95
43820;BME280;67762;52.476;6.046;2023-02-19T00:09:28;101597.72;;;9.85;88.72
43820;BME280;67762;52.476;6.046;2023-02-19T00:11:53;101593.22;;;9.85;88.66
43820;BME280;67762;52.476;6.046;2023-02-19T00:14:20;101599.66;;;9.83;88.52
43820;BME280;67762;52.476;6.046;2023-02-19T00:16:45;101602.47;;;9.81;88.57
43820;BME280;67762;52.476;6.046;2023-02-19T00:19:12;101603.44;;;9.80;88.90
43820;BME280;67762;52.476;6.046;2023-02-19T00:21:38;101603.72;;;9.77;88.67
43820;BME280;67762;52.476;6.046;2023-02-19T00:24:04;101598.25;;;9.79;88.95
43820;BME280;67762;52.476;6.046;2023-02-19T00:26:30;101605.41;;;9.78;88.89
43820;BME280;67762;52.476;6.046;2023-02-19T00:28:56;101610.63;;;9.80;88.73
43820;BME280;67762;52.476;6.046;2023-02-19T00:31:23;101621.13;;;9.81;88.59
43820;BME280;67762;52.476;6.046;2023-02-19T00:33:50;101615.81;;;9.81;88.72
43820;BME280;67762;52.476;6.046;2023-02-19T00:36:16;101612.28;;;9.81;88.49
43820;BME280;67762;52.476;6.046;2023-02-19T00:38:42;101616.66;;;9.82;88.42
43820;BME280;67762;52.476;6.046;2023-02-19T00:41:08;101618.47;;;9.81;89.19
43820;BME280;67762;52.476;6.046;2023-02-19T00:43:56;101612.00;;;9.84;88.66
43820;BME280;67762;52.476;6.046;2023-02-19T00:46:26;101611.16;;;9.83;88.67
43820;BME280;67762;52.476;6.046;2023-02-19T00:48:51;101611.31;;;9.82;88.79
43820;BME280;67762;52.476;6.046;2023-02-19T00:51:17;101607.66;;;9.83;88.61
43820;BME280;67762;52.476;6.046;2023-02-19T00:53:43;101609.34;;;9.84;88.57
43820;BME280;67762;52.476;6.046;2023-02-19T00:56:08;101608.50;;;9.83;88.76
43820;BME280;67762;52.476;6.046;2023-02-19T00:58:34;101619.03;;;9.85;88.63
43820;BME280;67762;52.476;6.046;2023-02-19T01:00:59;101612.69;;;9.86;88.82
43820;BME280;67762;52.476;6.046;2023-02-19T01:03:25;101606.41;;;9.87;88.54
43820;BME280;67762;52.476;6.046;2023-02-19T01:05:51;101617.91;;;9.87;88.66
43820;BME280;67762;52.476;6.046;2023-02-19T01:08:17;101625.06;;;9.87;88.53
43820;BME280;67762;52.476;6.046;2023-02-19T01:10:43;101617.22;;;9.85;88.32
43820;BME280;67762;52.476;6.046;2023-02-19T01:13:09;101614.81;;;9.82;88.69
43820;BME280;67762;52.476;6.046;2023-02-19T01:15:34;101622.25;;;9.79;88.48
43820;BME280;67762;52.476;6.046;2023-02-19T01:18:00;101621.00;;;9.73;88.44
43820;BME280;67762;52.476;6.046;2023-02-19T01:20:26;101633.03;;;9.68;88.22
43820;BME280;67762;52.476;6.046;2023-02-19T01:22:52;101633.31;;;9.65;88.59
43820;BME280;67762;52.476;6.046;2023-02-19T01:25:18;101635.28;;;9.63;88.22
43820;BME280;67762;52.476;6.046;2023-02-19T01:27:43;101634.56;;;9.61;88.37
43820;BME280;67762;52.476;6.046;2023-02-19T01:30:09;101636.53;;;9.59;88.58
43820;BME280;67762;52.476;6.046;2023-02-19T01:32:34;101634.72;;;9.59;88.57
43820;BME280;67762;52.476;6.046;2023-02-19T01:35:00;101636.53;;;9.59;88.58
43820;BME280;67762;52.476;6.046;2023-02-19T01:37:25;101636.53;;;9.59;89.16
43820;BME280;67762;52.476;6.046;2023-02-19T01:39:51;101635.69;;;9.58;88.67
43820;BME280;67762;52.476;6.046;2023-02-19T01:42:16;101636.53;;;9.59;88.43
43820;BME280;67762;52.476;6.046;2023-02-19T01:47:07;101638.50;;;9.57;88.62
43820;BME280;67762;52.476;6.046;2023-02-19T01:49:43;101635.97;;;9.55;88.66
43820;BME280;67762;52.476;6.046;2023-02-19T01:52:14;101641.44;;;9.54;88.38
43820;BME280;67762;52.476;6.046;2023-02-19T01:54:42;101637.06;;;9.53;88.59
43820;BME280;67762;52.476;6.046;2023-02-19T01:57:10;101635.53;;;9.50;88.67
43820;BME280;67762;52.476;6.046;2023-02-19T01:59:38;101635.69;;;9.49;88.61
43820;BME280;67762;52.476;6.046;2023-02-19T02:02:04;101636.81;;;9.46;88.52
43820;BME280;67762;52.476;6.046;2023-02-19T02:04:30;101638.63;;;9.46;88.58
43820;BME280;67762;52.476;6.046;2023-02-19T02:06:56;101642.13;;;9.46;88.53
43820;BME280;67762;52.476;6.046;2023-02-19T02:09:28;101636.94;;;9.45;88.59
43820;BME280;67762;52.476;6.046;2023-02-19T02:12:13;101635.38;;;9.42;88.49
43820;BME280;67762;52.476;6.046;2023-02-19T02:14:40;101638.31;;;9.39;88.75
43820;BME280;67762;52.476;6.046;2023-02-19T02:22:48;101643.91;;;9.36;88.72
43820;BME280;67762;52.476;6.046;2023-02-19T02:28:04;101617.56;;;9.33;88.69
43820;BME280;67762;52.476;6.046;2023-02-19T02:30:53;101638.84;;;9.33;88.82
43820;BME280;67762;52.476;6.046;2023-02-19T02:33:35;101636.19;;;9.33;88.66
43820;BME280;67762;52.476;6.046;2023-02-19T02:38:28;101642.25;;;9.35;88.82
43820;BME280;67762;52.476;6.046;2023-02-19T02:40:54;101648.53;;;9.34;88.73
43820;BME280;67762;52.476;6.046;2023-02-19T02:43:21;101655.41;;;9.36;88.77
43820;BME280;67762;52.476;6.046;2023-02-19T02:45:46;101650.25;;;9.35;88.86
43820;BME280;67762;52.476;6.046;2023-02-19T02:48:23;101660.88;;;9.35;88.68
43820;BME280;67762;52.476;6.046;2023-02-19T02:50:52;101675.84;;;9.26;88.75
43820;BME280;67762;52.476;6.046;2023-02-19T02:56:10;101671.34;;;9.17;88.89
43820;BME280;67762;52.476;6.046;2023-02-19T02:58:37;101675.13;;;9.15;88.85
43820;BME280;67762;52.476;6.046;2023-02-19T03:01:08;101661.09;;;9.13;88.87
43820;BME280;67762;52.476;6.046;2023-02-19T03:03:56;101674.53;;;9.11;88.77
43820;BME280;67762;52.476;6.046;2023-02-19T03:06:25;101678.31;;;9.09;89.29
43820;BME280;67762;52.476;6.046;2023-02-19T03:11:18;101683.19;;;9.04;89.02
43820;BME280;67762;52.476;6.046;2023-02-19T03:14:14;101675.34;;;9.02;88.86
43820;BME280;67762;52.476;6.046;2023-02-19T03:17:01;101691.31;;;9.02;88.98
43820;BME280;67762;52.476;6.046;2023-02-19T03:19:50;101694.94;;;9.01;88.90
43820;BME280;67762;52.476;6.046;2023-02-19T03:22:18;101689.75;;;9.00;89.04
43820;BME280;67762;52.476;6.046;2023-02-19T03:24:48;101694.94;;;9.01;89.15
43820;BME280;67762;52.476;6.046;2023-02-19T03:27:33;101694.94;;;9.01;89.12
43820;BME280;67762;52.476;6.046;2023-02-19T03:30:01;101703.78;;;9.02;89.53
43820;BME280;67762;52.476;6.046;2023-02-19T03:32:30;101696.66;;;9.02;89.36
43820;BME280;67762;52.476;6.046;2023-02-19T03:35:13;101703.63;;;9.03;89.13
43820;BME280;67762;52.476;6.046;2023-02-19T03:37:41;101700.00;;;9.04;89.20
43820;BME280;67762;52.476;6.046;2023-02-19T03:40:08;101702.69;;;9.04;89.52
43820;BME280;67762;52.476;6.046;2023-02-19T03:42:48;101700.00;;;9.04;89.34
43820;BME280;67762;52.476;6.046;2023-02-19T03:47:50;101707.00;;;9.05;89.01
43820;BME280;67762;52.476;6.046;2023-02-19T03:50:20;101715.84;;;9.06;89.30
43820;BME280;67762;52.476;6.046;2023-02-19T03:55:25;101714.03;;;9.06;89.44
43820;BME280;67762;52.476;6.046;2023-02-19T04:00:25;101717.81;;;9.04;89.39
43820;BME280;67762;52.476;6.046;2023-02-19T04:03:28;101724.94;;;9.03;89.49
43820;BME280;67762;52.476;6.046;2023-02-19T04:05:47;101731.13;;;9.04;89.51
43820;BME280;67762;52.476;6.046;2023-02-19T04:08:18;101730.25;;;9.03;89.53
43820;BME280;67762;52.476;6.046;2023-02-19T04:10:50;101737.41;;;9.03;89.60
43820;BME280;67762;52.476;6.046;2023-02-19T04:13:34;101743.56;;;9.03;89.40
43820;BME280;67762;52.476;6.046;2023-02-19T04:16:02;101743.56;;;9.03;89.47
43820;BME280;67762;52.476;6.046;2023-02-19T04:18:31;101753.25;;;9.04;89.50
43820;BME280;67762;52.476;6.046;2023-02-19T04:20:58;101759.44;;;9.05;89.53
43820;BME280;67762;52.476;6.046;2023-02-19T04:23:24;101758.44;;;9.06;89.44
43820;BME280;67762;52.476;6.046;2023-02-19T04:25:53;101757.59;;;9.05;89.71
43820;BME280;67762;52.476;6.046;2023-02-19T04:28:20;101769.09;;;9.06;89.79
43820;BME280;67762;52.476;6.046;2023-02-19T04:30:45;101767.41;;;9.05;89.57
43820;BME280;67762;52.476;6.046;2023-02-19T04:33:11;101773.72;;;9.04;89.59
43820;BME280;67762;52.476;6.046;2023-02-19T04:35:37;101771.91;;;9.04;89.68
43820;BME280;67762;52.476;6.046;2023-02-19T04:38:02;101782.91;;;9.00;89.74
43820;BME280;67762;52.476;6.046;2023-02-19T04:40:28;101783.06;;;8.98;89.50
43820;BME280;67762;52.476;6.046;2023-02-19T04:42:53;101796.50;;;8.97;89.70
43820;BME280;67762;52.476;6.046;2023-02-19T04:45:18;101793.00;;;8.96;89.80
43820;BME280;67762;52.476;6.046;2023-02-19T04:47:44;101799.53;;;8.92;89.71
43820;BME280;67762;52.476;6.046;2023-02-19T04:50:09;101808.63;;;8.90;90.02
43820;BME280;67762;52.476;6.046;2023-02-19T04:52:35;101810.59;;;8.88;89.73
43820;BME280;67762;52.476;6.046;2023-02-19T04:55:00;101813.38;;;8.86;89.87
43820;BME280;67762;52.476;6.046;2023-02-19T04:57:26;101815.31;;;8.84;89.69
43820;BME280;67762;52.476;6.046;2023-02-19T04:59:52;101822.44;;;8.83;90.19
43820;BME280;67762;52.476;6.046;2023-02-19T05:02:17;101818.13;;;8.82;90.24
43820;BME280;67762;52.476;6.046;2023-02-19T05:04:43;101817.28;;;8.82;89.83
43820;BME280;67762;52.476;6.046;2023-02-19T05:07:08;101828.78;;;8.82;89.88
43820;BME280;67762;52.476;6.046;2023-02-19T05:09:34;101839.53;;;8.81;90.05
43820;BME280;67762;52.476;6.046;2023-02-19T05:11:59;101829.72;;;8.81;89.84
43820;BME280;67762;52.476;6.046;2023-02-19T05:14:25;101828.88;;;8.81;90.02
43820;BME280;67762;52.476;6.046;2023-02-19T05:16:50;101817.38;;;8.80;90.06
43820;BME280;67762;52.476;6.046;2023-02-19T05:19:16;101832.53;;;8.80;90.12
43820;BME280;67762;52.476;6.046;2023-02-19T05:21:41;101841.47;;;8.79;90.11
43820;BME280;67762;52.476;6.046;2023-02-19T05:24:07;101837.97;;;8.78;90.25
43820;BME280;67762;52.476;6.046;2023-02-19T05:26:32;101842.34;;;8.79;89.95
43820;BME280;67762;52.476;6.046;2023-02-19T05:28:58;101845.94;;;8.78;90.34
43820;BME280;67762;52.476;6.046;2023-02-19T05:31:24;101850.41;;;8.78;90.07
43820;BME280;67762;52.476;6.046;2023-02-19T05:33:49;101849.56;;;8.77;90.25
43820;BME280;67762;52.476;6.046;2023-02-19T05:36:18;101850.56;;;8.76;90.42
43820;BME280;67762;52.476;6.046;2023-02-19T05:38:44;101861.22;;;8.76;90.44
43820;BME280;67762;52.476;6.046;2023-02-19T05:41:10;101849.84;;;8.74;90.20
43820;BME280;67762;52.476;6.046;2023-02-19T05:43:39;101852.78;;;8.71;90.34
43820;BME280;67762;52.476;6.046;2023-02-19T05:46:05;101861.00;;;8.68;90.43
43820;BME280;67762;52.476;6.046;2023-02-19T05:48:31;101856.78;;;8.66;90.42
43820;BME280;67762;52.476;6.046;2023-02-19T05:51:01;101861.50;;;8.62;90.51
43820;BME280;67762;52.476;6.046;2023-02-19T05:53:27;101863.47;;;8.60;90.19
43820;BME280;67762;52.476;6.046;2023-02-19T05:55:52;101869.13;;;8.56;90.46
43820;BME280;67762;52.476;6.046;2023-02-19T05:58:18;101865.63;;;8.55;90.75
43820;BME280;67762;52.476;6.046;2023-02-19T06:00:43;101869.28;;;8.54;90.57
43820;BME280;67762;52.476;6.046;2023-02-19T06:03:09;101866.72;;;8.53;90.35
43820;BME280;67762;52.476;6.046;2023-02-19T06:05:34;101875.69;;;8.52;90.70
43820;BME280;67762;52.476;6.046;2023-02-19T06:08:00;101877.59;;;8.50;90.63
43820;BME280;67762;52.476;6.046;2023-02-19T06:10:26;101886.69;;;8.47;90.52
43820;BME280;67762;52.476;6.046;2023-02-19T06:12:52;101886.81;;;8.46;90.65
43820;BME280;67762;52.476;6.046;2023-02-19T06:15:18;101879.81;;;8.45;90.51
43820;BME280;67762;52.476;6.046;2023-02-19T06:17:43;101897.72;;;8.43;90.63
43820;BME280;67762;52.476;6.046;2023-02-19T06:20:09;101915.47;;;8.42;90.76
43820;BME280;67762;52.476;6.046;2023-02-19T06:22:34;101929.88;;;8.40;90.41
43820;BME280;67762;52.476;6.046;2023-02-19T06:25:00;101933.50;;;8.39;90.90
43820;BME280;67762;52.476;6.046;2023-02-19T06:27:25;101931.81;;;8.38;90.88
43820;BME280;67762;52.476;6.046;2023-02-19T06:29:51;101929.25;;;8.36;90.44
43820;BME280;67762;52.476;6.046;2023-02-19T06:32:16;101931.22;;;8.34;90.38
43820;BME280;67762;52.476;6.046;2023-02-19T06:34:42;101933.16;;;8.32;90.83
43820;BME280;67762;52.476;6.046;2023-02-19T06:37:07;101942.81;;;8.33;91.00
43820;BME280;67762;52.476;6.046;2023-02-19T06:39:33;101948.13;;;8.33;90.44
43820;BME280;67762;52.476;6.046;2023-02-19T06:41:58;101955.53;;;8.30;90.36
43820;BME280;67762;52.476;6.046;2023-02-19T06:44:24;101961.03;;;8.27;90.44
43820;BME280;67762;52.476;6.046;2023-02-19T06:46:50;101963.81;;;8.25;91.18
43820;BME280;67762;52.476;6.046;2023-02-19T06:49:15;101967.94;;;8.18;90.39
43820;BME280;67762;52.476;6.046;2023-02-19T06:51:41;101973.63;;;8.13;90.48
43820;BME280;67762;52.476;6.046;2023-02-19T06:54:07;101965.28;;;8.07;90.72
43820;BME280;67762;52.476;6.046;2023-02-19T06:56:33;101967.31;;;8.03;90.55
43820;BME280;67762;52.476;6.046;2023-02-19T06:59:00;101966.59;;;8.01;90.76
43820;BME280;67762;52.476;6.046;2023-02-19T07:01:26;101976.38;;;8.01;90.83
43820;BME280;67762;52.476;6.046;2023-02-19T07:03:52;101988.09;;;7.98;91.38
43820;BME280;67762;52.476;6.046;2023-02-19T07:06:18;101995.22;;;7.98;91.38
43820;BME280;67762;52.476;6.046;2023-02-19T07:08:44;101993.41;;;7.98;91.30
43820;BME280;67762;52.476;6.046;2023-02-19T07:11:09;101991.63;;;7.99;90.97
43820;BME280;67762;52.476;6.046;2023-02-19T07:13:35;101996.06;;;7.98;90.97
43820;BME280;67762;52.476;6.046;2023-02-19T07:16:02;102003.91;;;8.00;91.06
43820;BME280;67762;52.476;6.046;2023-02-19T07:18:28;102016.38;;;7.99;90.81
43820;BME280;67762;52.476;6.046;2023-02-19T07:20:54;102029.69;;;7.99;91.01
43820;BME280;67762;52.476;6.046;2023-02-19T07:23:19;102040.31;;;7.99;90.86
43820;BME280;67762;52.476;6.046;2023-02-19T07:25:44;102029.78;;;7.98;90.60
43820;BME280;67762;52.476;6.046;2023-02-19T07:28:10;102038.47;;;8.00;91.21
43820;BME280;67762;52.476;6.046;2023-02-19T07:30:35;102040.19;;;8.01;91.24
43820;BME280;67762;52.476;6.046;2023-02-19T07:33:01;102050.09;;;7.99;90.89
43820;BME280;67762;52.476;6.046;2023-02-19T07:35:26;102060.72;;;7.99;90.79
43820;BME280;67762;52.476;6.046;2023-02-19T07:37:52;102063.47;;;7.97;91.06
43820;BME280;67762;52.476;6.046;2023-02-19T07:40:17;102066.59;;;7.80;91.67
43820;BME280;67762;52.476;6.046;2023-02-19T07:42:43;102059.16;;;7.61;91.62
43820;BME280;67762;52.476;6.046;2023-02-19T07:45:08;102053.28;;;7.45;91.04
43820;BME280;67762;52.476;6.046;2023-02-19T07:47:34;102064.50;;;7.38;91.06
43820;BME280;67762;52.476;6.046;2023-02-19T07:49:59;102066.63;;;7.33;91.45
43820;BME280;67762;52.476;6.046;2023-02-19T07:52:25;102070.34;;;7.30;90.89
43820;BME280;67762;52.476;6.046;2023-02-19T07:54:50;102081.81;;;7.31;90.84
43820;BME280;67762;52.476;6.046;2023-02-19T07:57:16;102075.28;;;7.24;90.90
43820;BME280;67762;52.476;6.046;2023-02-19T07:59:41;102092.50;;;7.18;90.67
43820;BME280;67762;52.476;6.046;2023-02-19T08:02:25;102087.41;;;7.15;90.79
43820;BME280;67762;52.476;6.046;2023-02-19T08:05:09;102092.00;;;7.13;91.35
43820;BME280;67762;52.476;6.046;2023-02-19T08:07:35;102097.28;;;7.13;90.53
43820;BME280;67762;52.476;6.046;2023-02-19T08:10:01;102106.34;;;7.11;90.40
43820;BME280;67762;52.476;6.046;2023-02-19T08:12:53;102113.66;;;7.07;90.45
43820;BME280;67762;52.476;6.046;2023-02-19T08:15:37;102125.44;;;7.03;90.44
43820;BME280;67762;52.476;6.046;2023-02-19T08:18:03;102127.06;;;6.93;90.84
43820;BME280;67762;52.476;6.046;2023-02-19T08:20:28;102138.00;;;6.88;90.87
43820;BME280;67762;52.476;6.046;2023-02-19T08:22:54;102130.28;;;6.85;90.86
43820;BME280;67762;52.476;6.046;2023-02-19T08:25:19;102140.75;;;6.87;90.86
43820;BME280;67762;52.476;6.046;2023-02-19T08:27:45;102147.78;;;6.88;91.35
43820;BME280;67762;52.476;6.046;2023-02-19T08:30:10;102151.50;;;6.85;90.69
43820;BME280;67762;52.476;6.046;2023-02-19T08:32:36;102160.63;;;6.81;91.37
43820;BME280;67762;52.476;6.046;2023-02-19T08:35:01;102168.56;;;6.81;91.51
43820;BME280;67762;52.476;6.046;2023-02-19T08:37:27;102169.00;;;6.75;90.84
43820;BME280;67762;52.476;6.046;2023-02-19T08:39:52;102174.63;;;6.71;91.49
43820;BME280;67762;52.476;6.046;2023-02-19T08:42:18;102181.72;;;6.70;90.96
43820;BME280;67762;52.476;6.046;2023-02-19T08:44:43;102182.16;;;6.64;91.16
43820;BME280;67762;52.476;6.046;2023-02-19T08:47:09;102175.91;;;6.65;90.73
43820;BME280;67762;52.476;6.046;2023-02-19T08:49:34;102190.03;;;6.66;91.46
43820;BME280;67762;52.476;6.046;2023-02-19T08:52:00;102181.53;;;6.73;91.46
43820;BME280;67762;52.476;6.046;2023-02-19T08:54:25;102191.50;;;6.82;91.16
43820;BME280;67762;52.476;6.046;2023-02-19T08:56:51;102196.03;;;6.80;91.40
43820;BME280;67762;52.476;6.046;2023-02-19T08:59:16;102198.28;;;6.86;91.56
43820;BME280;67762;52.476;6.046;2023-02-19T09:01:44;102195.19;;;6.92;90.60
43820;BME280;67762;52.476;6.046;2023-02-19T09:04:10;102194.47;;;6.90;91.57
43820;BME280;67762;52.476;6.046;2023-02-19T09:06:38;102199.97;;;6.87;91.39
43820;BME280;67762;52.476;6.046;2023-02-19T09:09:03;102203.69;;;6.85;91.27
43820;BME280;67762;52.476;6.046;2023-02-19T09:11:29;102211.84;;;6.94;90.41
43820;BME280;67762;52.476;6.046;2023-02-19T09:13:54;102216.53;;;6.91;91.25
43820;BME280;67762;52.476;6.046;2023-02-19T09:16:20;102226.94;;;6.81;90.43
43820;BME280;67762;52.476;6.046;2023-02-19T09:18:46;102237.66;;;6.80;90.76
43820;BME280;67762;52.476;6.046;2023-02-19T09:21:11;102247.44;;;6.79;91.19
43820;BME280;67762;52.476;6.046;2023-02-19T09:23:37;102258.25;;;6.76;91.28
43820;BME280;67762;52.476;6.046;2023-02-19T09:26:03;102262.69;;;6.76;90.42
43820;BME280;67762;52.476;6.046;2023-02-19T09:28:32;102268.31;;;6.71;91.55
43820;BME280;67762;52.476;6.046;2023-02-19T09:31:07;102282.66;;;6.69;91.43
43820;BME280;67762;52.476;6.046;2023-02-19T09:33:33;102293.53;;;6.64;91.56
43820;BME280;67762;52.476;6.046;2023-02-19T09:35:59;102285.19;;;6.58;91.38
43820;BME280;67762;52.476;6.046;2023-02-19T09:38:25;102297.78;;;6.54;91.30
43820;BME280;67762;52.476;6.046;2023-02-19T09:40:50;102301.38;;;6.53;90.79
43820;BME280;67762;52.476;6.046;2023-02-19T09:43:17;102312.63;;;6.44;91.19
43820;BME280;67762;52.476;6.046;2023-02-19T09:45:44;102300.63;;;6.38;90.38
43820;BME280;67762;52.476;6.046;2023-02-19T09:48:10;102316.72;;;6.35;90.80
43820;BME280;67762;52.476;6.046;2023-02-19T09:50:37;102324.09;;;6.30;90.70
43820;BME280;67762;52.476;6.046;2023-02-19T09:53:04;102316.25;;;6.29;90.66
43820;BME280;67762;52.476;6.046;2023-02-19T09:55:40;102322.09;;;6.34;90.70
43820;BME280;67762;52.476;6.046;2023-02-19T09:58:13;102324.66;;;6.35;91.13
43820;BME280;67762;52.476;6.046;2023-02-19T10:00:42;102321.31;;;6.46;91.27
43820;BME280;67762;52.476;6.046;2023-02-19T10:03:11;102332.34;;;6.53;90.71
43820;BME280;67762;52.476;6.046;2023-02-19T10:05:39;102346.25;;;6.56;91.21
43820;BME280;67762;52.476;6.046;2023-02-19T10:08:06;102344.34;;;6.58;90.85
43820;BME280;67762;52.476;6.046;2023-02-19T10:10:34;102346.50;;;6.66;90.06
43820;BME280;67762;52.476;6.046;2023-02-19T10:13:22;102350.69;;;6.82;91.10
43820;BME280;67762;52.476;6.046;2023-02-19T10:15:46;102362.03;;;6.84;91.01
43820;BME280;67762;52.476;6.046;2023-02-19T10:18:15;102373.38;;;6.86;90.74
43820;BME280;67762;52.476;6.046;2023-02-19T10:20:40;102376.03;;;6.86;90.22
43820;BME280;67762;52.476;6.046;2023-02-19T10:23:06;102378.75;;;6.99;90.46
43820;BME280;67762;52.476;6.046;2023-02-19T10:25:33;102383.66;;;7.05;90.01
43820;BME280;67762;52.476;6.046;2023-02-19T10:27:59;102378.00;;;7.10;90.19
43820;BME280;67762;52.476;6.046;2023-02-19T10:30:29;102382.91;;;7.16;90.81
43820;BME280;67762;52.476;6.046;2023-02-19T10:33:00;102384.38;;;7.20;89.93
43820;BME280;67762;52.476;6.046;2023-02-19T10:35:26;102384.19;;;7.35;90.66
43820;BME280;67762;52.476;6.046;2023-02-19T10:37:52;102390.16;;;7.51;90.76
43820;BME280;67762;52.476;6.046;2023-02-19T10:40:21;102392.59;;;7.80;90.51
43820;BME280;67762;52.476;6.046;2023-02-19T10:42:49;102390.75;;;7.93;90.53
43820;BME280;67762;52.476;6.046;2023-02-19T10:45:17;102396.06;;;7.93;90.39
43820;BME280;67762;52.476;6.046;2023-02-19T10:47:45;102396.16;;;8.04;90.00
43820;BME280;67762;52.476;6.046;2023-02-19T10:52:55;102397.59;;;8.20;89.46
43820;BME280;67762;52.476;6.046;2023-02-19T10:57:47;102395.38;;;8.27;89.02
43820;BME280;67762;52.476;6.046;2023-02-19T11:02:40;102390.72;;;8.42;89.16
43820;BME280;67762;52.476;6.046;2023-02-19T11:10:18;102394.41;;;8.28;87.81
43820;BME280;67762;52.476;6.046;2023-02-19T11:12:45;102392.78;;;8.38;87.37
43820;BME280;67762;52.476;6.046;2023-02-19T11:15:18;102398.06;;;8.51;87.66
43820;BME280;67762;52.476;6.046;2023-02-19T11:17:44;102403.63;;;8.71;87.60
43820;BME280;67762;52.476;6.046;2023-02-19T11:20:18;102403.03;;;8.79;87.87
43820;BME280;67762;52.476;6.046;2023-02-19T11:22:43;102399.56;;;8.90;87.55
43820;BME280;67762;52.476;6.046;2023-02-19T11:27:56;102416.31;;;9.03;87.65
43820;BME280;67762;52.476;6.046;2023-02-19T11:30:30;102421.97;;;9.33;87.75
43820;BME280;67762;52.476;6.046;2023-02-19T11:35:44;102423.97;;;9.75;88.52
43820;BME280;67762;52.476;6.046;2023-02-19T11:38:10;102416.44;;;9.58;88.21
43820;BME280;67762;52.476;6.046;2023-02-19T11:53:34;102423.16;;;9.18;86.30
43820;BME280;67762;52.476;6.046;2023-02-19T11:59:16;102428.06;;;9.35;85.79
43820;BME280;67762;52.476;6.046;2023-02-19T12:01:17;102432.53;;;9.34;85.36
43820;BME280;67762;52.476;6.046;2023-02-19T12:14:03;102412.41;;;9.30;84.08
43820;BME280;67762;52.476;6.046;2023-02-19T12:17:36;102411.22;;;9.34;83.99
43820;BME280;67762;52.476;6.046;2023-02-19T12:35:45;102431.50;;;10.48;85.29
43820;BME280;67762;52.476;6.046;2023-02-19T12:38:30;102433.22;;;10.38;84.44
43820;BME280;67762;52.476;6.046;2023-02-19T12:43:24;102442.06;;;10.38;83.65
43820;BME280;67762;52.476;6.046;2023-02-19T12:45:51;102440.38;;;10.26;82.63
43820;BME280;67762;52.476;6.046;2023-02-19T12:48:23;102436.50;;;10.19;82.71
43820;BME280;67762;52.476;6.046;2023-02-19T12:50:54;102448.50;;;10.14;81.80
43820;BME280;67762;52.476;6.046;2023-02-19T12:53:29;102441.47;;;10.02;81.39
43820;BME280;67762;52.476;6.046;2023-02-19T12:55:57;102443.88;;;9.93;80.51
43820;BME280;67762;52.476;6.046;2023-02-19T12:58:27;102441.94;;;9.95;80.55
43820;BME280;67762;52.476;6.046;2023-02-19T13:00:56;102445.84;;;10.14;81.55
43820;BME280;67762;52.476;6.046;2023-02-19T13:06:39;102452.47;;;9.86;80.47
43820;BME280;67762;52.476;6.046;2023-02-19T13:09:17;102466.00;;;9.72;79.82
43820;BME280;67762;52.476;6.046;2023-02-19T13:11:47;102467.63;;;9.74;79.78
43820;BME280;67762;52.476;6.046;2023-02-19T13:14:23;102464.47;;;9.80;79.91
43820;BME280;67762;52.476;6.046;2023-02-19T13:16:54;102485.44;;;9.85;80.38
43820;BME280;67762;52.476;6.046;2023-02-19T13:19:21;102484.72;;;9.94;80.57
43820;BME280;67762;52.476;6.046;2023-02-19T13:21:49;102487.75;;;10.00;80.71
43820;BME280;67762;52.476;6.046;2023-02-19T13:24:36;102489.56;;;10.00;80.56
43820;BME280;67762;52.476;6.046;2023-02-19T13:32:20;102506.16;;;9.92;79.95
43820;BME280;67762;52.476;6.046;2023-02-19T13:37:33;102483.03;;;10.04;80.01
43820;BME280;67762;52.476;6.046;2023-02-19T13:40:02;102473.81;;;9.97;79.82
43820;BME280;67762;52.476;6.046;2023-02-19T13:42:32;102472.47;;;10.02;79.50
43820;BME280;67762;52.476;6.046;2023-02-19T13:44:58;102482.66;;;10.09;79.14
43820;BME280;67762;52.476;6.046;2023-02-19T13:50:11;102492.72;;;10.05;78.69
43820;BME280;67762;52.476;6.046;2023-02-19T13:52:41;102501.94;;;10.12;79.70
43820;BME280;67762;52.476;6.046;2023-02-19T13:57:51;102495.38;;;9.94;79.42
43820;BME280;67762;52.476;6.046;2023-02-19T14:06:00;102495.84;;;9.77;79.35
43820;BME280;67762;52.476;6.046;2023-02-19T14:08:46;102489.66;;;9.76;79.28
43820;BME280;67762;52.476;6.046;2023-02-19T14:11:12;102487.31;;;9.61;78.59
43820;BME280;67762;52.476;6.046;2023-02-19T14:14:00;102492.13;;;9.45;78.34
43820;BME280;67762;52.476;6.046;2023-02-19T14:18:59;102467.34;;;9.20;77.95
43820;BME280;67762;52.476;6.046;2023-02-19T14:21:35;102465.63;;;9.19;77.85
43820;BME280;67762;52.476;6.046;2023-02-19T14:24:01;102464.75;;;9.08;78.11
43820;BME280;67762;52.476;6.046;2023-02-19T14:26:27;102453.72;;;9.01;78.21
43820;BME280;67762;52.476;6.046;2023-02-19T14:28:55;102455.66;;;8.99;78.45
43820;BME280;67762;52.476;6.046;2023-02-19T14:31:27;102451.63;;;8.94;78.58
43820;BME280;67762;52.476;6.046;2023-02-19T14:33:54;102449.41;;;8.88;79.34
43820;BME280;67762;52.476;6.046;2023-02-19T14:36:26;102449.50;;;8.86;79.39
43820;BME280;67762;52.476;6.046;2023-02-19T14:38:54;102440.56;;;8.87;79.92
43820;BME280;67762;52.476;6.046;2023-02-19T14:41:20;102440.31;;;8.79;80.02
43820;BME280;67762;52.476;6.046;2023-02-19T14:43:49;102441.09;;;8.68;80.41
43820;BME280;67762;52.476;6.046;2023-02-19T14:46:29;102445.66;;;8.66;80.69
43820;BME280;67762;52.476;6.046;2023-02-19T14:48:57;102440.81;;;8.60;80.86
43820;BME280;67762;52.476;6.046;2023-02-19T14:53:50;102440.19;;;8.57;81.24
43820;BME280;67762;52.476;6.046;2023-02-19T14:56:18;102433.06;;;8.57;81.69
43820;BME280;67762;52.476;6.046;2023-02-19T14:58:44;102435.59;;;8.59;81.66
43820;BME280;67762;52.476;6.046;2023-02-19T15:01:26;102428.59;;;8.58;81.71
43820;BME280;67762;52.476;6.046;2023-02-19T15:03:52;102432.19;;;8.57;81.99